sensor_id;sensor_type;location;lat;lon;timestamp;pressure;altitude;pressure_sealevel;temperature
68911;BMP180;55953;51.650;-0.522;2022-08-19T00:00:09;100401.80;;;20.50
68911;BMP180;55953;51.650;-0.522;2022-08-19T00:02:57;100404.60;;;20.50
68911;BMP180;55953;51.650;-0.522;2022-08-19T00:05:25;100403.60;;;20.50
68911;BMP180;55953;51.650;-0.522;2022-08-19T00:07:53;100404.60;;;20.50
68911;BMP180;55953;51.650;-0.522;2022-08-19T00:10:21;100404.80;;;20.50
68911;BMP180;55953;51.650;-0.522;2022-08-19T00:12:49;100403.80;;;20.50
68911;BMP180;55953;51.650;-0.522;2022-08-19T00:15:20;100398.40;;;20.50
68911;BMP180;55953;51.650;-0.522;2022-08-19T00:17:49;100395.60;;;20.50
68911;BMP180;55953;51.650;-0.522;2022-08-19T00:20:20;100399.40;;;20.56
68911;BMP180;55953;51.650;-0.522;2022-08-19T00:22:49;100398.80;;;20.54
68911;BMP180;55953;51.650;-0.522;2022-08-19T00:25:18;100403.20;;;20.60
68911;BMP180;55953;51.650;-0.522;2022-08-19T00:27:57;100403.00;;;20.50
68911;BMP180;55953;51.650;-0.522;2022-08-19T00:30:26;100403.20;;;20.50
68911;BMP180;55953;51.650;-0.522;2022-08-19T00:32:57;100400.40;;;20.50
68911;BMP180;55953;51.650;-0.522;2022-08-19T00:35:25;100405.80;;;20.48
68911;BMP180;55953;51.650;-0.522;2022-08-19T00:37:55;100402.80;;;20.50
68911;BMP180;55953;51.650;-0.522;2022-08-19T00:40:23;100399.20;;;20.50
68911;BMP180;55953;51.650;-0.522;2022-08-19T00:42:53;100395.20;;;20.42
68911;BMP180;55953;51.650;-0.522;2022-08-19T00:45:25;100397.00;;;20.40
68911;BMP180;55953;51.650;-0.522;2022-08-19T00:47:53;100392.00;;;20.34
68911;BMP180;55953;51.650;-0.522;2022-08-19T00:50:22;100389.80;;;20.30
68911;BMP180;55953;51.650;-0.522;2022-08-19T00:52:52;100392.80;;;20.30
68911;BMP180;55953;51.650;-0.522;2022-08-19T00:55:26;100394.40;;;20.30
68911;BMP180;55953;51.650;-0.522;2022-08-19T00:58:01;100394.00;;;20.28
68911;BMP180;55953;51.650;-0.522;2022-08-19T01:00:31;100396.00;;;20.22
68911;BMP180;55953;51.650;-0.522;2022-08-19T01:02:59;100395.80;;;20.24
68911;BMP180;55953;51.650;-0.522;2022-08-19T01:05:29;100397.20;;;20.20
68911;BMP180;55953;51.650;-0.522;2022-08-19T01:08:01;100396.00;;;20.20
68911;BMP180;55953;51.650;-0.522;2022-08-19T01:10:36;100391.60;;;20.20
68911;BMP180;55953;51.650;-0.522;2022-08-19T01:13:05;100388.80;;;20.18
68911;BMP180;55953;51.650;-0.522;2022-08-19T01:15:43;100383.60;;;20.10
68911;BMP180;55953;51.650;-0.522;2022-08-19T01:18:15;100386.00;;;20.10
68911;BMP180;55953;51.650;-0.522;2022-08-19T01:20:44;100383.20;;;20.10
68911;BMP180;55953;51.650;-0.522;2022-08-19T01:23:14;100377.20;;;20.00
68911;BMP180;55953;51.650;-0.522;2022-08-19T01:25:52;100382.40;;;20.00
68911;BMP180;55953;51.650;-0.522;2022-08-19T01:28:25;100378.40;;;19.90
68911;BMP180;55953;51.650;-0.522;2022-08-19T01:31:10;100382.60;;;19.90
68911;BMP180;55953;51.650;-0.522;2022-08-19T01:33:56;100383.80;;;19.90
68911;BMP180;55953;51.650;-0.522;2022-08-19T01:36:42;100381.40;;;19.80
68911;BMP180;55953;51.650;-0.522;2022-08-19T01:39:15;100385.60;;;19.80
68911;BMP180;55953;51.650;-0.522;2022-08-19T01:41:45;100387.60;;;19.70
68911;BMP180;55953;51.650;-0.522;2022-08-19T01:44:15;100389.20;;;19.64
68911;BMP180;55953;51.650;-0.522;2022-08-19T01:46:48;100393.20;;;19.60
68911;BMP180;55953;51.650;-0.522;2022-08-19T01:49:19;100394.00;;;19.60
68911;BMP180;55953;51.650;-0.522;2022-08-19T01:51:48;100391.20;;;19.50
68911;BMP180;55953;51.650;-0.522;2022-08-19T01:54:21;100389.80;;;19.50
68911;BMP180;55953;51.650;-0.522;2022-08-19T01:57:10;100382.00;;;19.50
68911;BMP180;55953;51.650;-0.522;2022-08-19T01:59:41;100387.20;;;19.50
68911;BMP180;55953;51.650;-0.522;2022-08-19T02:02:09;100380.00;;;19.58
68911;BMP180;55953;51.650;-0.522;2022-08-19T02:04:38;100380.40;;;19.60
68911;BMP180;55953;51.650;-0.522;2022-08-19T02:07:07;100385.20;;;19.60
68911;BMP180;55953;51.650;-0.522;2022-08-19T02:09:36;100383.80;;;19.66
68911;BMP180;55953;51.650;-0.522;2022-08-19T02:12:06;100385.20;;;19.70
68911;BMP180;55953;51.650;-0.522;2022-08-19T02:14:36;100380.80;;;19.70
68911;BMP180;55953;51.650;-0.522;2022-08-19T02:17:04;100383.40;;;19.74
68911;BMP180;55953;51.650;-0.522;2022-08-19T02:19:32;100380.60;;;19.76
68911;BMP180;55953;51.650;-0.522;2022-08-19T02:22:00;100386.40;;;19.78
68911;BMP180;55953;51.650;-0.522;2022-08-19T02:24:28;100387.80;;;19.80
68911;BMP180;55953;51.650;-0.522;2022-08-19T02:26:56;100390.00;;;19.80
68911;BMP180;55953;51.650;-0.522;2022-08-19T02:29:24;100389.60;;;19.80
68911;BMP180;55953;51.650;-0.522;2022-08-19T02:31:52;100388.00;;;19.82
68911;BMP180;55953;51.650;-0.522;2022-08-19T02:34:20;100386.80;;;19.90
68911;BMP180;55953;51.650;-0.522;2022-08-19T02:36:48;100388.00;;;19.90
68911;BMP180;55953;51.650;-0.522;2022-08-19T02:39:18;100389.00;;;20.00
68911;BMP180;55953;51.650;-0.522;2022-08-19T02:41:46;100388.20;;;20.00
68911;BMP180;55953;51.650;-0.522;2022-08-19T02:44:14;100390.00;;;20.00
68911;BMP180;55953;51.650;-0.522;2022-08-19T02:46:58;100396.00;;;20.08
68911;BMP180;55953;51.650;-0.522;2022-08-19T02:49:26;100392.20;;;20.10
68911;BMP180;55953;51.650;-0.522;2022-08-19T02:51:53;100395.00;;;20.10
68911;BMP180;55953;51.650;-0.522;2022-08-19T02:54:22;100391.80;;;20.10
68911;BMP180;55953;51.650;-0.522;2022-08-19T02:56:49;100391.80;;;20.10
68911;BMP180;55953;51.650;-0.522;2022-08-19T02:59:17;100389.40;;;20.10
68911;BMP180;55953;51.650;-0.522;2022-08-19T03:01:49;100389.00;;;20.10
68911;BMP180;55953;51.650;-0.522;2022-08-19T03:04:18;100393.20;;;20.10
68911;BMP180;55953;51.650;-0.522;2022-08-19T03:06:47;100388.40;;;20.10
68911;BMP180;55953;51.650;-0.522;2022-08-19T03:09:18;100387.80;;;20.10
68911;BMP180;55953;51.650;-0.522;2022-08-19T03:11:47;100391.20;;;20.20
68911;BMP180;55953;51.650;-0.522;2022-08-19T03:14:19;100390.80;;;20.20
68911;BMP180;55953;51.650;-0.522;2022-08-19T03:16:51;100391.00;;;20.10
68911;BMP180;55953;51.650;-0.522;2022-08-19T03:19:20;100394.20;;;20.10
68911;BMP180;55953;51.650;-0.522;2022-08-19T03:21:51;100390.00;;;20.10
68911;BMP180;55953;51.650;-0.522;2022-08-19T03:24:20;100387.80;;;20.10
68911;BMP180;55953;51.650;-0.522;2022-08-19T03:26:53;100387.40;;;20.00
68911;BMP180;55953;51.650;-0.522;2022-08-19T03:29:27;100386.40;;;20.00
68911;BMP180;55953;51.650;-0.522;2022-08-19T03:32:01;100389.00;;;20.00
68911;BMP180;55953;51.650;-0.522;2022-08-19T03:34:36;100391.40;;;20.00
68911;BMP180;55953;51.650;-0.522;2022-08-19T03:37:10;100395.00;;;20.00
68911;BMP180;55953;51.650;-0.522;2022-08-19T03:39:41;100396.00;;;20.00
68911;BMP180;55953;51.650;-0.522;2022-08-19T03:42:11;100399.80;;;20.00
68911;BMP180;55953;51.650;-0.522;2022-08-19T03:44:58;100389.00;;;19.90
68911;BMP180;55953;51.650;-0.522;2022-08-19T03:47:26;100391.60;;;19.90
68911;BMP180;55953;51.650;-0.522;2022-08-19T03:49:54;100392.00;;;19.80
68911;BMP180;55953;51.650;-0.522;2022-08-19T03:52:22;100395.60;;;19.80
68911;BMP180;55953;51.650;-0.522;2022-08-19T03:54:50;100400.60;;;19.80
68911;BMP180;55953;51.650;-0.522;2022-08-19T03:57:18;100395.40;;;19.80
68911;BMP180;55953;51.650;-0.522;2022-08-19T03:59:46;100400.40;;;19.74
68911;BMP180;55953;51.650;-0.522;2022-08-19T04:02:14;100399.60;;;19.80
68911;BMP180;55953;51.650;-0.522;2022-08-19T04:04:43;100403.60;;;19.70
68911;BMP180;55953;51.650;-0.522;2022-08-19T04:07:14;100405.00;;;19.70
68911;BMP180;55953;51.650;-0.522;2022-08-19T04:09:48;100405.00;;;19.70
68911;BMP180;55953;51.650;-0.522;2022-08-19T04:12:17;100405.00;;;19.66
68911;BMP180;55953;51.650;-0.522;2022-08-19T04:14:47;100402.20;;;19.60
68911;BMP180;55953;51.650;-0.522;2022-08-19T04:17:15;100404.00;;;19.60
68911;BMP180;55953;51.650;-0.522;2022-08-19T04:19:43;100407.20;;;19.60
68911;BMP180;55953;51.650;-0.522;2022-08-19T04:22:12;100411.00;;;19.70
68911;BMP180;55953;51.650;-0.522;2022-08-19T04:24:40;100407.20;;;19.60
68911;BMP180;55953;51.650;-0.522;2022-08-19T04:27:07;100405.00;;;19.60
68911;BMP180;55953;51.650;-0.522;2022-08-19T04:29:35;100403.80;;;19.50
68911;BMP180;55953;51.650;-0.522;2022-08-19T04:32:07;100403.00;;;19.40
68911;BMP180;55953;51.650;-0.522;2022-08-19T04:34:37;100408.80;;;19.40
68911;BMP180;55953;51.650;-0.522;2022-08-19T04:37:26;100409.20;;;19.30
68911;BMP180;55953;51.650;-0.522;2022-08-19T04:40:05;100413.00;;;19.30
68911;BMP180;55953;51.650;-0.522;2022-08-19T04:42:51;100414.40;;;19.20
68911;BMP180;55953;51.650;-0.522;2022-08-19T04:45:21;100417.40;;;19.26
68911;BMP180;55953;51.650;-0.522;2022-08-19T04:47:55;100422.80;;;19.30
68911;BMP180;55953;51.650;-0.522;2022-08-19T04:50:46;100430.40;;;19.30
68911;BMP180;55953;51.650;-0.522;2022-08-19T04:53:15;100430.20;;;19.22
68911;BMP180;55953;51.650;-0.522;2022-08-19T04:55:43;100436.80;;;19.24
68911;BMP180;55953;51.650;-0.522;2022-08-19T04:58:11;100438.00;;;19.22
68911;BMP180;55953;51.650;-0.522;2022-08-19T05:00:39;100446.20;;;19.22
68911;BMP180;55953;51.650;-0.522;2022-08-19T05:03:07;100447.80;;;19.28
68911;BMP180;55953;51.650;-0.522;2022-08-19T05:05:44;100446.40;;;19.24
68911;BMP180;55953;51.650;-0.522;2022-08-19T05:08:14;100442.20;;;19.30
68911;BMP180;55953;51.650;-0.522;2022-08-19T05:10:58;100444.40;;;19.20
68911;BMP180;55953;51.650;-0.522;2022-08-19T05:13:26;100447.20;;;19.20
68911;BMP180;55953;51.650;-0.522;2022-08-19T05:15:57;100448.60;;;19.20
68911;BMP180;55953;51.650;-0.522;2022-08-19T05:18:26;100445.60;;;19.20
68911;BMP180;55953;51.650;-0.522;2022-08-19T05:21:16;100446.40;;;19.20
68911;BMP180;55953;51.650;-0.522;2022-08-19T05:24:05;100461.60;;;19.20
68911;BMP180;55953;51.650;-0.522;2022-08-19T05:26:38;100464.00;;;19.20
68911;BMP180;55953;51.650;-0.522;2022-08-19T05:29:07;100466.60;;;19.30
68911;BMP180;55953;51.650;-0.522;2022-08-19T05:31:37;100466.20;;;19.30
68911;BMP180;55953;51.650;-0.522;2022-08-19T05:34:09;100467.00;;;19.40
68911;BMP180;55953;51.650;-0.522;2022-08-19T05:36:49;100466.40;;;19.40
68911;BMP180;55953;51.650;-0.522;2022-08-19T05:39:20;100463.00;;;19.40
68911;BMP180;55953;51.650;-0.522;2022-08-19T05:41:55;100463.20;;;19.40
68911;BMP180;55953;51.650;-0.522;2022-08-19T05:44:27;100460.40;;;19.30
68911;BMP180;55953;51.650;-0.522;2022-08-19T05:47:01;100460.60;;;19.30
68911;BMP180;55953;51.650;-0.522;2022-08-19T05:49:30;100460.80;;;19.20
68911;BMP180;55953;51.650;-0.522;2022-08-19T05:52:07;100460.20;;;19.20
68911;BMP180;55953;51.650;-0.522;2022-08-19T05:54:39;100460.20;;;19.20
68911;BMP180;55953;51.650;-0.522;2022-08-19T05:57:09;100468.20;;;19.20
68911;BMP180;55953;51.650;-0.522;2022-08-19T05:59:39;100464.80;;;19.20
68911;BMP180;55953;51.650;-0.522;2022-08-19T06:02:07;100460.40;;;19.20
68911;BMP180;55953;51.650;-0.522;2022-08-19T06:04:35;100464.40;;;19.20
68911;BMP180;55953;51.650;-0.522;2022-08-19T06:07:03;100470.80;;;19.30
68911;BMP180;55953;51.650;-0.522;2022-08-19T06:09:40;100470.40;;;19.20
68911;BMP180;55953;51.650;-0.522;2022-08-19T06:12:28;100477.00;;;19.30
68911;BMP180;55953;51.650;-0.522;2022-08-19T06:15:09;100479.20;;;19.30
68911;BMP180;55953;51.650;-0.522;2022-08-19T06:17:38;100476.20;;;19.30
68911;BMP180;55953;51.650;-0.522;2022-08-19T06:20:10;100481.80;;;19.28
68911;BMP180;55953;51.650;-0.522;2022-08-19T06:22:45;100482.00;;;19.32
68911;BMP180;55953;51.650;-0.522;2022-08-19T06:25:15;100478.80;;;19.40
68911;BMP180;55953;51.650;-0.522;2022-08-19T06:27:43;100483.40;;;19.40
68911;BMP180;55953;51.650;-0.522;2022-08-19T06:30:32;100485.60;;;19.40
68911;BMP180;55953;51.650;-0.522;2022-08-19T06:33:00;100489.20;;;19.30
68911;BMP180;55953;51.650;-0.522;2022-08-19T06:35:28;100484.40;;;19.20
68911;BMP180;55953;51.650;-0.522;2022-08-19T06:37:57;100484.00;;;19.10
68911;BMP180;55953;51.650;-0.522;2022-08-19T06:40:25;100487.00;;;19.00
68911;BMP180;55953;51.650;-0.522;2022-08-19T06:42:55;100485.80;;;19.00
68911;BMP180;55953;51.650;-0.522;2022-08-19T06:45:24;100487.80;;;18.90
68911;BMP180;55953;51.650;-0.522;2022-08-19T06:48:02;100483.00;;;18.90
68911;BMP180;55953;51.650;-0.522;2022-08-19T06:50:30;100485.20;;;18.90
68911;BMP180;55953;51.650;-0.522;2022-08-19T06:52:58;100491.80;;;18.94
68911;BMP180;55953;51.650;-0.522;2022-08-19T06:55:30;100486.80;;;19.00
68911;BMP180;55953;51.650;-0.522;2022-08-19T06:58:04;100489.80;;;19.10
68911;BMP180;55953;51.650;-0.522;2022-08-19T07:00:33;100491.80;;;19.26
68911;BMP180;55953;51.650;-0.522;2022-08-19T07:03:01;100495.20;;;19.28
68911;BMP180;55953;51.650;-0.522;2022-08-19T07:05:41;100499.80;;;19.30
68911;BMP180;55953;51.650;-0.522;2022-08-19T07:08:13;100495.40;;;19.24
68911;BMP180;55953;51.650;-0.522;2022-08-19T07:10:45;100492.60;;;19.20
68911;BMP180;55953;51.650;-0.522;2022-08-19T07:13:13;100497.80;;;19.20
68911;BMP180;55953;51.650;-0.522;2022-08-19T07:15:42;100495.20;;;19.20
68911;BMP180;55953;51.650;-0.522;2022-08-19T07:18:10;100497.60;;;19.20
68911;BMP180;55953;51.650;-0.522;2022-08-19T07:20:39;100504.00;;;19.30
68911;BMP180;55953;51.650;-0.522;2022-08-19T07:23:09;100502.60;;;19.30
68911;BMP180;55953;51.650;-0.522;2022-08-19T07:25:43;100502.60;;;19.20
68911;BMP180;55953;51.650;-0.522;2022-08-19T07:28:19;100505.40;;;19.10
68911;BMP180;55953;51.650;-0.522;2022-08-19T07:30:52;100510.80;;;19.00
68911;BMP180;55953;51.650;-0.522;2022-08-19T07:33:22;100513.60;;;18.98
68911;BMP180;55953;51.650;-0.522;2022-08-19T07:35:50;100515.00;;;18.90
68911;BMP180;55953;51.650;-0.522;2022-08-19T07:38:18;100510.20;;;18.90
68911;BMP180;55953;51.650;-0.522;2022-08-19T07:40:46;100512.60;;;18.80
68911;BMP180;55953;51.650;-0.522;2022-08-19T07:43:14;100507.60;;;18.80
68911;BMP180;55953;51.650;-0.522;2022-08-19T07:45:44;100512.80;;;18.90
68911;BMP180;55953;51.650;-0.522;2022-08-19T07:48:12;100514.60;;;18.90
68911;BMP180;55953;51.650;-0.522;2022-08-19T07:50:42;100512.20;;;18.94
68911;BMP180;55953;51.650;-0.522;2022-08-19T07:53:10;100515.00;;;18.90
68911;BMP180;55953;51.650;-0.522;2022-08-19T07:55:39;100522.40;;;18.90
68911;BMP180;55953;51.650;-0.522;2022-08-19T07:58:14;100520.20;;;19.00
68911;BMP180;55953;51.650;-0.522;2022-08-19T08:00:47;100524.00;;;19.00
68911;BMP180;55953;51.650;-0.522;2022-08-19T08:03:18;100527.00;;;19.06
68911;BMP180;55953;51.650;-0.522;2022-08-19T08:05:46;100531.40;;;19.10
68911;BMP180;55953;51.650;-0.522;2022-08-19T08:08:33;100530.80;;;19.14
68911;BMP180;55953;51.650;-0.522;2022-08-19T08:11:20;100529.40;;;19.30
68911;BMP180;55953;51.650;-0.522;2022-08-19T08:13:50;100529.20;;;19.40
68911;BMP180;55953;51.650;-0.522;2022-08-19T08:16:38;100525.60;;;19.60
68911;BMP180;55953;51.650;-0.522;2022-08-19T08:19:14;100528.80;;;19.82
68911;BMP180;55953;51.650;-0.522;2022-08-19T08:21:55;100530.80;;;20.10
68911;BMP180;55953;51.650;-0.522;2022-08-19T08:24:26;100527.60;;;20.20
68911;BMP180;55953;51.650;-0.522;2022-08-19T08:26:56;100520.00;;;20.26
68911;BMP180;55953;51.650;-0.522;2022-08-19T08:29:28;100524.40;;;20.30
68911;BMP180;55953;51.650;-0.522;2022-08-19T08:32:02;100529.20;;;20.30
68911;BMP180;55953;51.650;-0.522;2022-08-19T08:34:42;100533.00;;;20.30
68911;BMP180;55953;51.650;-0.522;2022-08-19T08:37:10;100531.60;;;20.48
68911;BMP180;55953;51.650;-0.522;2022-08-19T08:39:38;100521.60;;;20.62
68911;BMP180;55953;51.650;-0.522;2022-08-19T08:42:34;100517.60;;;20.70
68911;BMP180;55953;51.650;-0.522;2022-08-19T08:45:12;100514.80;;;20.70
68911;BMP180;55953;51.650;-0.522;2022-08-19T08:47:50;100518.00;;;20.72
68911;BMP180;55953;51.650;-0.522;2022-08-19T08:50:27;100518.80;;;20.70
68911;BMP180;55953;51.650;-0.522;2022-08-19T08:52:58;100513.80;;;20.54
68911;BMP180;55953;51.650;-0.522;2022-08-19T08:55:29;100521.20;;;20.40
68911;BMP180;55953;51.650;-0.522;2022-08-19T08:58:17;100527.00;;;20.40
68911;BMP180;55953;51.650;-0.522;2022-08-19T09:00:48;100531.00;;;20.30
68911;BMP180;55953;51.650;-0.522;2022-08-19T09:03:25;100528.80;;;20.30
68911;BMP180;55953;51.650;-0.522;2022-08-19T09:06:28;100528.40;;;20.40
68911;BMP180;55953;51.650;-0.522;2022-08-19T09:09:33;100529.40;;;20.50
68911;BMP180;55953;51.650;-0.522;2022-08-19T09:12:27;100526.20;;;20.60
68911;BMP180;55953;51.650;-0.522;2022-08-19T09:15:10;100532.60;;;20.60
68911;BMP180;55953;51.650;-0.522;2022-08-19T09:17:39;100530.40;;;20.50
68911;BMP180;55953;51.650;-0.522;2022-08-19T09:22:39;100527.80;;;20.50
68911;BMP180;55953;51.650;-0.522;2022-08-19T09:25:10;100537.20;;;20.50
68911;BMP180;55953;51.650;-0.522;2022-08-19T09:27:40;100528.00;;;20.50
68911;BMP180;55953;51.650;-0.522;2022-08-19T09:30:21;100528.80;;;20.68
68911;BMP180;55953;51.650;-0.522;2022-08-19T09:32:51;100523.80;;;20.80
68911;BMP180;55953;51.650;-0.522;2022-08-19T09:35:27;100523.40;;;20.82
68911;BMP180;55953;51.650;-0.522;2022-08-19T09:37:57;100540.20;;;20.90
68911;BMP180;55953;51.650;-0.522;2022-08-19T09:40:28;100544.00;;;20.80
68911;BMP180;55953;51.650;-0.522;2022-08-19T09:42:58;100533.20;;;20.70
68911;BMP180;55953;51.650;-0.522;2022-08-19T09:45:38;100537.40;;;20.80
68911;BMP180;55953;51.650;-0.522;2022-08-19T09:48:06;100537.40;;;20.90
68911;BMP180;55953;51.650;-0.522;2022-08-19T09:50:36;100535.00;;;20.90
68911;BMP180;55953;51.650;-0.522;2022-08-19T09:53:19;100536.00;;;20.90
68911;BMP180;55953;51.650;-0.522;2022-08-19T09:55:55;100529.80;;;21.10
68911;BMP180;55953;51.650;-0.522;2022-08-19T09:58:23;100531.20;;;21.30
68911;BMP180;55953;51.650;-0.522;2022-08-19T10:00:57;100534.00;;;21.50
68911;BMP180;55953;51.650;-0.522;2022-08-19T10:03:28;100536.40;;;21.80
68911;BMP180;55953;51.650;-0.522;2022-08-19T10:06:00;100533.40;;;22.20
68911;BMP180;55953;51.650;-0.522;2022-08-19T10:08:32;100537.20;;;22.36
68911;BMP180;55953;51.650;-0.522;2022-08-19T10:11:02;100535.80;;;22.40
68911;BMP180;55953;51.650;-0.522;2022-08-19T10:13:52;100540.00;;;22.40
68911;BMP180;55953;51.650;-0.522;2022-08-19T10:16:22;100546.60;;;22.50
68911;BMP180;55953;51.650;-0.522;2022-08-19T10:18:58;100540.40;;;22.46
68911;BMP180;55953;51.650;-0.522;2022-08-19T10:21:32;100536.40;;;22.40
68911;BMP180;55953;51.650;-0.522;2022-08-19T10:24:05;100545.00;;;22.44
68911;BMP180;55953;51.650;-0.522;2022-08-19T10:26:36;100545.60;;;22.40
68911;BMP180;55953;51.650;-0.522;2022-08-19T10:29:05;100534.20;;;22.50
68911;BMP180;55953;51.650;-0.522;2022-08-19T10:31:36;100545.00;;;22.60
68911;BMP180;55953;51.650;-0.522;2022-08-19T10:34:24;100541.00;;;22.54
68911;BMP180;55953;51.650;-0.522;2022-08-19T10:36:57;100547.20;;;22.50
68911;BMP180;55953;51.650;-0.522;2022-08-19T10:39:30;100547.40;;;22.50
68911;BMP180;55953;51.650;-0.522;2022-08-19T10:42:09;100561.00;;;22.40
68911;BMP180;55953;51.650;-0.522;2022-08-19T10:44:41;100556.40;;;22.16
68911;BMP180;55953;51.650;-0.522;2022-08-19T10:47:10;100556.20;;;22.18
68911;BMP180;55953;51.650;-0.522;2022-08-19T10:49:54;100559.20;;;22.00
68911;BMP180;55953;51.650;-0.522;2022-08-19T10:52:45;100566.60;;;21.96
68911;BMP180;55953;51.650;-0.522;2022-08-19T10:55:21;100568.40;;;22.00
68911;BMP180;55953;51.650;-0.522;2022-08-19T10:58:17;100570.00;;;21.96
68911;BMP180;55953;51.650;-0.522;2022-08-19T11:00:56;100574.60;;;21.90
68911;BMP180;55953;51.650;-0.522;2022-08-19T11:03:26;100568.60;;;22.00
68911;BMP180;55953;51.650;-0.522;2022-08-19T11:06:06;100571.40;;;22.30
68911;BMP180;55953;51.650;-0.522;2022-08-19T11:08:36;100567.60;;;22.50
68911;BMP180;55953;51.650;-0.522;2022-08-19T11:11:07;100564.20;;;22.60
68911;BMP180;55953;51.650;-0.522;2022-08-19T11:13:39;100568.80;;;22.56
68911;BMP180;55953;51.650;-0.522;2022-08-19T11:16:13;100570.20;;;22.62
68911;BMP180;55953;51.650;-0.522;2022-08-19T11:18:47;100571.20;;;22.80
68911;BMP180;55953;51.650;-0.522;2022-08-19T11:21:34;100569.20;;;22.90
68911;BMP180;55953;51.650;-0.522;2022-08-19T11:24:20;100565.60;;;23.00
68911;BMP180;55953;51.650;-0.522;2022-08-19T11:26:52;100572.80;;;23.10
68911;BMP180;55953;51.650;-0.522;2022-08-19T11:29:21;100571.80;;;23.14
68911;BMP180;55953;51.650;-0.522;2022-08-19T11:31:49;100573.60;;;23.20
68911;BMP180;55953;51.650;-0.522;2022-08-19T11:34:22;100576.80;;;23.20
68911;BMP180;55953;51.650;-0.522;2022-08-19T11:36:51;100567.60;;;23.24
68911;BMP180;55953;51.650;-0.522;2022-08-19T11:39:22;100566.40;;;23.10
68911;BMP180;55953;51.650;-0.522;2022-08-19T11:41:50;100571.40;;;23.10
68911;BMP180;55953;51.650;-0.522;2022-08-19T11:44:18;100580.00;;;23.20
68911;BMP180;55953;51.650;-0.522;2022-08-19T11:46:47;100576.80;;;23.20
68911;BMP180;55953;51.650;-0.522;2022-08-19T11:49:19;100570.00;;;23.30
68911;BMP180;55953;51.650;-0.522;2022-08-19T11:51:48;100573.00;;;23.28
68911;BMP180;55953;51.650;-0.522;2022-08-19T11:54:20;100575.00;;;23.20
68911;BMP180;55953;51.650;-0.522;2022-08-19T11:56:48;100565.80;;;23.10
68911;BMP180;55953;51.650;-0.522;2022-08-19T11:59:16;100570.20;;;23.20
68911;BMP180;55953;51.650;-0.522;2022-08-19T12:01:44;100573.40;;;23.08
68911;BMP180;55953;51.650;-0.522;2022-08-19T12:04:13;100565.20;;;23.00
68911;BMP180;55953;51.650;-0.522;2022-08-19T12:06:41;100572.00;;;23.12
68911;BMP180;55953;51.650;-0.522;2022-08-19T12:09:10;100568.40;;;23.10
68911;BMP180;55953;51.650;-0.522;2022-08-19T12:11:39;100575.20;;;22.96
68911;BMP180;55953;51.650;-0.522;2022-08-19T12:14:12;100578.80;;;22.90
68911;BMP180;55953;51.650;-0.522;2022-08-19T12:16:45;100570.80;;;23.00
68911;BMP180;55953;51.650;-0.522;2022-08-19T12:19:19;100568.60;;;22.90
68911;BMP180;55953;51.650;-0.522;2022-08-19T12:21:50;100572.80;;;22.90
68911;BMP180;55953;51.650;-0.522;2022-08-19T12:24:19;100577.20;;;22.90
68911;BMP180;55953;51.650;-0.522;2022-08-19T12:26:51;100576.20;;;22.80
68911;BMP180;55953;51.650;-0.522;2022-08-19T12:29:21;100567.40;;;22.80
68911;BMP180;55953;51.650;-0.522;2022-08-19T12:31:58;100566.00;;;23.02
68911;BMP180;55953;51.650;-0.522;2022-08-19T12:34:32;100562.80;;;23.20
68911;BMP180;55953;51.650;-0.522;2022-08-19T12:37:02;100562.60;;;23.36
68911;BMP180;55953;51.650;-0.522;2022-08-19T12:39:38;100560.80;;;23.52
68911;BMP180;55953;51.650;-0.522;2022-08-19T12:42:09;100560.40;;;23.60
68911;BMP180;55953;51.650;-0.522;2022-08-19T12:44:39;100558.20;;;23.68
68911;BMP180;55953;51.650;-0.522;2022-08-19T12:47:12;100551.80;;;23.50
68911;BMP180;55953;51.650;-0.522;2022-08-19T12:49:42;100549.60;;;23.30
68911;BMP180;55953;51.650;-0.522;2022-08-19T12:52:23;100550.20;;;23.30
68911;BMP180;55953;51.650;-0.522;2022-08-19T12:54:54;100546.00;;;23.50
68911;BMP180;55953;51.650;-0.522;2022-08-19T12:57:27;100556.00;;;23.60
68911;BMP180;55953;51.650;-0.522;2022-08-19T13:00:09;100545.60;;;23.70
68911;BMP180;55953;51.650;-0.522;2022-08-19T13:02:42;100546.80;;;23.60
68911;BMP180;55953;51.650;-0.522;2022-08-19T13:05:22;100554.40;;;23.70
68911;BMP180;55953;51.650;-0.522;2022-08-19T13:07:53;100546.20;;;23.70
68911;BMP180;55953;51.650;-0.522;2022-08-19T13:10:30;100553.60;;;23.70
68911;BMP180;55953;51.650;-0.522;2022-08-19T13:13:08;100546.20;;;23.60
68911;BMP180;55953;51.650;-0.522;2022-08-19T13:15:41;100550.20;;;23.66
68911;BMP180;55953;51.650;-0.522;2022-08-19T13:18:11;100541.00;;;23.72
68911;BMP180;55953;51.650;-0.522;2022-08-19T13:20:41;100552.60;;;23.98
68911;BMP180;55953;51.650;-0.522;2022-08-19T13:23:19;100542.20;;;24.00
68911;BMP180;55953;51.650;-0.522;2022-08-19T13:26:00;100553.20;;;24.22
68911;BMP180;55953;51.650;-0.522;2022-08-19T13:28:28;100549.60;;;24.30
68911;BMP180;55953;51.650;-0.522;2022-08-19T13:31:25;100546.00;;;24.40
68911;BMP180;55953;51.650;-0.522;2022-08-19T13:34:14;100534.60;;;24.60
68911;BMP180;55953;51.650;-0.522;2022-08-19T13:36:43;100546.00;;;24.70
68911;BMP180;55953;51.650;-0.522;2022-08-19T13:39:11;100549.40;;;24.60
68911;BMP180;55953;51.650;-0.522;2022-08-19T13:41:45;100553.80;;;24.40
68911;BMP180;55953;51.650;-0.522;2022-08-19T13:44:19;100554.80;;;24.50
68911;BMP180;55953;51.650;-0.522;2022-08-19T13:46:49;100545.40;;;24.32
68911;BMP180;55953;51.650;-0.522;2022-08-19T13:49:21;100542.20;;;24.20
68911;BMP180;55953;51.650;-0.522;2022-08-19T13:51:50;100547.80;;;24.10
68911;BMP180;55953;51.650;-0.522;2022-08-19T13:54:19;100552.80;;;24.20
68911;BMP180;55953;51.650;-0.522;2022-08-19T13:56:47;100560.60;;;24.12
68911;BMP180;55953;51.650;-0.522;2022-08-19T13:59:15;100562.40;;;24.20
68911;BMP180;55953;51.650;-0.522;2022-08-19T14:01:44;100561.20;;;24.30
68911;BMP180;55953;51.650;-0.522;2022-08-19T14:04:12;100557.00;;;24.34
68911;BMP180;55953;51.650;-0.522;2022-08-19T14:06:40;100552.80;;;24.40
68911;BMP180;55953;51.650;-0.522;2022-08-19T14:09:08;100554.60;;;24.42
68911;BMP180;55953;51.650;-0.522;2022-08-19T14:11:36;100553.60;;;24.30
68911;BMP180;55953;51.650;-0.522;2022-08-19T14:14:04;100564.00;;;24.40
68911;BMP180;55953;51.650;-0.522;2022-08-19T14:16:33;100559.20;;;24.30